Terminal Aerodrome Forecast
Issued by NWS

Current Version | Previous Version | Text Only | Print | Product List | Glossary On
Versions: 1 2 3 4 5 6 7 8 9 10 11 12 13 14 15
000
FTUS42 KTAE 182300
TAFDHN
TAF
KDHN 182320Z 1900/1924 31003KT P6SM SCT040 BKN100
     FM190800 03004KT P6SM BKN040 OVC100
     FM192000 04004KT 6SM -RA BKN040 OVC100=

USA.gov is the U.S. government's official web portal to all federal, state and local government web resources and services.